sensor_id;sensor_type;location;lat;lon;timestamp;temperature;humidity
40636;DHT22;26642;55.766;37.828;2023-05-07T00:00:05;10.10;47.60
40636;DHT22;26642;55.766;37.828;2023-05-07T00:02:34;10.00;47.50
40636;DHT22;26642;55.766;37.828;2023-05-07T00:05:01;10.00;47.60
40636;DHT22;26642;55.766;37.828;2023-05-07T00:07:28;10.00;47.70
40636;DHT22;26642;55.766;37.828;2023-05-07T00:09:54;10.00;47.80
40636;DHT22;26642;55.766;37.828;2023-05-07T00:12:20;9.90;47.80
40636;DHT22;26642;55.766;37.828;2023-05-07T00:14:46;9.90;47.80
40636;DHT22;26642;55.766;37.828;2023-05-07T00:17:12;9.90;47.80
40636;DHT22;26642;55.766;37.828;2023-05-07T00:19:38;9.90;48.00
40636;DHT22;26642;55.766;37.828;2023-05-07T00:22:04;9.90;48.00
40636;DHT22;26642;55.766;37.828;2023-05-07T00:24:30;9.90;48.00
40636;DHT22;26642;55.766;37.828;2023-05-07T00:26:55;9.80;48.00
40636;DHT22;26642;55.766;37.828;2023-05-07T00:29:23;9.80;48.00
40636;DHT22;26642;55.766;37.828;2023-05-07T00:31:49;9.80;48.10
40636;DHT22;26642;55.766;37.828;2023-05-07T00:34:16;9.80;48.10
40636;DHT22;26642;55.766;37.828;2023-05-07T00:36:42;9.80;48.20
40636;DHT22;26642;55.766;37.828;2023-05-07T00:39:08;9.80;48.30
40636;DHT22;26642;55.766;37.828;2023-05-07T00:41:34;9.70;48.30
40636;DHT22;26642;55.766;37.828;2023-05-07T00:44:00;9.70;48.30
40636;DHT22;26642;55.766;37.828;2023-05-07T00:46:28;9.70;48.40
40636;DHT22;26642;55.766;37.828;2023-05-07T00:48:57;9.70;48.40
40636;DHT22;26642;55.766;37.828;2023-05-07T00:51:25;9.70;48.40
40636;DHT22;26642;55.766;37.828;2023-05-07T00:53:53;9.60;48.40
40636;DHT22;26642;55.766;37.828;2023-05-07T00:56:21;9.60;48.70
40636;DHT22;26642;55.766;37.828;2023-05-07T00:58:47;9.60;48.60
40636;DHT22;26642;55.766;37.828;2023-05-07T01:01:13;9.60;48.70
40636;DHT22;26642;55.766;37.828;2023-05-07T01:03:42;9.60;48.70
40636;DHT22;26642;55.766;37.828;2023-05-07T01:06:09;9.60;48.80
40636;DHT22;26642;55.766;37.828;2023-05-07T01:08:37;9.60;48.80
40636;DHT22;26642;55.766;37.828;2023-05-07T01:11:06;9.60;48.80
40636;DHT22;26642;55.766;37.828;2023-05-07T01:13:34;9.50;48.80
40636;DHT22;26642;55.766;37.828;2023-05-07T01:16:02;9.50;48.80
40636;DHT22;26642;55.766;37.828;2023-05-07T01:18:28;9.50;48.90
40636;DHT22;26642;55.766;37.828;2023-05-07T01:20:59;9.50;49.00
40636;DHT22;26642;55.766;37.828;2023-05-07T01:23:28;9.50;49.00
40636;DHT22;26642;55.766;37.828;2023-05-07T01:25:55;9.40;49.00
40636;DHT22;26642;55.766;37.828;2023-05-07T01:28:24;9.40;48.90
40636;DHT22;26642;55.766;37.828;2023-05-07T01:30:53;9.40;49.00
40636;DHT22;26642;55.766;37.828;2023-05-07T01:33:21;9.40;48.90
40636;DHT22;26642;55.766;37.828;2023-05-07T01:35:51;9.40;49.00
40636;DHT22;26642;55.766;37.828;2023-05-07T01:38:18;9.40;49.00
40636;DHT22;26642;55.766;37.828;2023-05-07T01:40:46;9.40;49.10
40636;DHT22;26642;55.766;37.828;2023-05-07T01:43:13;9.40;49.10
40636;DHT22;26642;55.766;37.828;2023-05-07T01:45:40;9.30;49.00
40636;DHT22;26642;55.766;37.828;2023-05-07T01:48:07;9.30;49.70
40636;DHT22;26642;55.766;37.828;2023-05-07T01:50:34;9.30;49.00
40636;DHT22;26642;55.766;37.828;2023-05-07T01:53:01;9.40;49.10
40636;DHT22;26642;55.766;37.828;2023-05-07T01:55:28;9.30;49.10
40636;DHT22;26642;55.766;37.828;2023-05-07T01:57:54;9.30;49.10
40636;DHT22;26642;55.766;37.828;2023-05-07T02:00:20;9.30;49.20
40636;DHT22;26642;55.766;37.828;2023-05-07T02:02:46;9.30;49.20
40636;DHT22;26642;55.766;37.828;2023-05-07T02:05:31;9.30;49.20
40636;DHT22;26642;55.766;37.828;2023-05-07T02:08:10;9.30;49.20
40636;DHT22;26642;55.766;37.828;2023-05-07T02:10:36;9.30;49.20
40636;DHT22;26642;55.766;37.828;2023-05-07T02:13:05;9.30;49.20
40636;DHT22;26642;55.766;37.828;2023-05-07T02:15:31;9.40;49.50
40636;DHT22;26642;55.766;37.828;2023-05-07T02:18:03;9.50;49.20
40636;DHT22;26642;55.766;37.828;2023-05-07T02:20:30;9.50;49.10
40636;DHT22;26642;55.766;37.828;2023-05-07T02:22:56;9.60;49.00
40636;DHT22;26642;55.766;37.828;2023-05-07T02:25:22;9.60;49.00
40636;DHT22;26642;55.766;37.828;2023-05-07T02:27:48;9.60;49.00
40636;DHT22;26642;55.766;37.828;2023-05-07T02:30:15;9.60;48.90
40636;DHT22;26642;55.766;37.828;2023-05-07T02:32:41;9.70;48.90
40636;DHT22;26642;55.766;37.828;2023-05-07T02:35:07;9.80;48.90
40636;DHT22;26642;55.766;37.828;2023-05-07T02:37:33;9.90;48.90
40636;DHT22;26642;55.766;37.828;2023-05-07T02:40:00;10.00;48.80
40636;DHT22;26642;55.766;37.828;2023-05-07T02:42:26;10.10;48.70
40636;DHT22;26642;55.766;37.828;2023-05-07T02:44:52;10.10;48.60
40636;DHT22;26642;55.766;37.828;2023-05-07T02:47:19;10.20;48.40
40636;DHT22;26642;55.766;37.828;2023-05-07T02:49:45;10.30;48.30
40636;DHT22;26642;55.766;37.828;2023-05-07T02:52:12;10.30;48.20
40636;DHT22;26642;55.766;37.828;2023-05-07T02:54:38;10.30;48.10
40636;DHT22;26642;55.766;37.828;2023-05-07T02:57:04;10.30;48.10
40636;DHT22;26642;55.766;37.828;2023-05-07T02:59:30;10.30;48.70
40636;DHT22;26642;55.766;37.828;2023-05-07T03:01:57;10.30;48.10
40636;DHT22;26642;55.766;37.828;2023-05-07T03:04:23;10.30;48.10
40636;DHT22;26642;55.766;37.828;2023-05-07T03:06:48;10.30;48.00
40636;DHT22;26642;55.766;37.828;2023-05-07T03:09:15;10.30;48.00
40636;DHT22;26642;55.766;37.828;2023-05-07T03:11:41;10.30;48.00
40636;DHT22;26642;55.766;37.828;2023-05-07T03:14:06;10.30;48.00
40636;DHT22;26642;55.766;37.828;2023-05-07T03:16:32;10.30;48.00
40636;DHT22;26642;55.766;37.828;2023-05-07T03:18:58;10.30;48.00
40636;DHT22;26642;55.766;37.828;2023-05-07T03:21:25;10.30;48.00
40636;DHT22;26642;55.766;37.828;2023-05-07T03:23:52;10.30;48.00
40636;DHT22;26642;55.766;37.828;2023-05-07T03:26:18;10.30;48.00
40636;DHT22;26642;55.766;37.828;2023-05-07T03:28:44;10.30;48.00
40636;DHT22;26642;55.766;37.828;2023-05-07T03:31:13;10.30;48.00
40636;DHT22;26642;55.766;37.828;2023-05-07T03:33:52;10.30;48.00
40636;DHT22;26642;55.766;37.828;2023-05-07T03:36:19;10.30;48.00
40636;DHT22;26642;55.766;37.828;2023-05-07T03:38:45;10.30;48.00
40636;DHT22;26642;55.766;37.828;2023-05-07T03:41:11;10.30;48.00
40636;DHT22;26642;55.766;37.828;2023-05-07T03:43:38;10.30;48.10
40636;DHT22;26642;55.766;37.828;2023-05-07T03:46:09;10.30;48.10
40636;DHT22;26642;55.766;37.828;2023-05-07T03:48:35;10.30;48.10
40636;DHT22;26642;55.766;37.828;2023-05-07T03:51:01;10.30;48.10
40636;DHT22;26642;55.766;37.828;2023-05-07T03:53:31;10.30;48.10
40636;DHT22;26642;55.766;37.828;2023-05-07T03:55:57;10.30;48.10
40636;DHT22;26642;55.766;37.828;2023-05-07T03:58:23;10.40;48.00
40636;DHT22;26642;55.766;37.828;2023-05-07T04:00:50;10.60;47.90
40636;DHT22;26642;55.766;37.828;2023-05-07T04:03:24;10.80;47.70
40636;DHT22;26642;55.766;37.828;2023-05-07T04:05:51;11.10;47.40
40636;DHT22;26642;55.766;37.828;2023-05-07T04:08:17;11.40;47.10
40636;DHT22;26642;55.766;37.828;2023-05-07T04:10:47;11.60;46.70
40636;DHT22;26642;55.766;37.828;2023-05-07T04:13:13;12.00;46.40
40636;DHT22;26642;55.766;37.828;2023-05-07T04:15:39;12.20;45.90
40636;DHT22;26642;55.766;37.828;2023-05-07T04:18:09;12.50;45.50
40636;DHT22;26642;55.766;37.828;2023-05-07T04:20:36;12.90;45.00
40636;DHT22;26642;55.766;37.828;2023-05-07T04:23:04;13.20;44.50
40636;DHT22;26642;55.766;37.828;2023-05-07T04:25:31;13.50;44.00
40636;DHT22;26642;55.766;37.828;2023-05-07T04:28:06;13.70;44.00
40636;DHT22;26642;55.766;37.828;2023-05-07T04:30:32;14.00;43.30
40636;DHT22;26642;55.766;37.828;2023-05-07T04:32:58;14.20;42.90
40636;DHT22;26642;55.766;37.828;2023-05-07T04:35:26;14.40;42.70
40636;DHT22;26642;55.766;37.828;2023-05-07T04:37:53;14.60;42.40
40636;DHT22;26642;55.766;37.828;2023-05-07T04:40:18;14.80;42.80
40636;DHT22;26642;55.766;37.828;2023-05-07T04:42:45;15.10;42.00
40636;DHT22;26642;55.766;37.828;2023-05-07T04:45:11;15.30;41.70
40636;DHT22;26642;55.766;37.828;2023-05-07T04:47:40;15.60;41.40
40636;DHT22;26642;55.766;37.828;2023-05-07T04:50:07;15.80;41.10
40636;DHT22;26642;55.766;37.828;2023-05-07T04:52:35;16.10;40.80
40636;DHT22;26642;55.766;37.828;2023-05-07T04:55:01;16.30;40.60
40636;DHT22;26642;55.766;37.828;2023-05-07T04:57:33;16.50;40.40
40636;DHT22;26642;55.766;37.828;2023-05-07T04:59:59;16.70;40.20
40636;DHT22;26642;55.766;37.828;2023-05-07T05:02:25;16.90;40.10
40636;DHT22;26642;55.766;37.828;2023-05-07T05:04:51;17.10;40.10
40636;DHT22;26642;55.766;37.828;2023-05-07T05:07:17;17.20;39.90
40636;DHT22;26642;55.766;37.828;2023-05-07T05:09:43;17.30;39.70
40636;DHT22;26642;55.766;37.828;2023-05-07T05:12:11;17.50;39.70
40636;DHT22;26642;55.766;37.828;2023-05-07T05:14:37;17.60;39.60
40636;DHT22;26642;55.766;37.828;2023-05-07T05:17:04;17.80;39.50
40636;DHT22;26642;55.766;37.828;2023-05-07T05:19:30;17.90;39.40
40636;DHT22;26642;55.766;37.828;2023-05-07T05:21:55;18.10;39.30
40636;DHT22;26642;55.766;37.828;2023-05-07T05:24:22;18.20;39.10
40636;DHT22;26642;55.766;37.828;2023-05-07T05:26:48;18.40;39.10
40636;DHT22;26642;55.766;37.828;2023-05-07T05:29:14;18.60;39.00
40636;DHT22;26642;55.766;37.828;2023-05-07T05:31:41;18.70;38.80
40636;DHT22;26642;55.766;37.828;2023-05-07T05:34:07;18.90;38.60
40636;DHT22;26642;55.766;37.828;2023-05-07T05:36:34;19.10;38.50
40636;DHT22;26642;55.766;37.828;2023-05-07T05:39:00;19.30;38.30
40636;DHT22;26642;55.766;37.828;2023-05-07T05:41:27;19.40;38.10
40636;DHT22;26642;55.766;37.828;2023-05-07T05:43:54;19.70;38.00
40636;DHT22;26642;55.766;37.828;2023-05-07T05:46:20;19.60;37.80
40636;DHT22;26642;55.766;37.828;2023-05-07T05:48:48;19.70;37.90
40636;DHT22;26642;55.766;37.828;2023-05-07T05:51:15;19.80;37.90
40636;DHT22;26642;55.766;37.828;2023-05-07T05:53:41;19.90;37.70
40636;DHT22;26642;55.766;37.828;2023-05-07T05:56:07;20.00;37.60
40636;DHT22;26642;55.766;37.828;2023-05-07T05:58:34;20.00;37.70
40636;DHT22;26642;55.766;37.828;2023-05-07T06:01:04;20.10;37.60
40636;DHT22;26642;55.766;37.828;2023-05-07T06:03:31;20.20;37.60
40636;DHT22;26642;55.766;37.828;2023-05-07T06:06:01;20.30;37.50
40636;DHT22;26642;55.766;37.828;2023-05-07T06:08:29;20.50;37.40
40636;DHT22;26642;55.766;37.828;2023-05-07T06:10:56;20.50;37.30
40636;DHT22;26642;55.766;37.828;2023-05-07T06:13:23;20.60;37.40
40636;DHT22;26642;55.766;37.828;2023-05-07T06:15:50;20.70;37.30
40636;DHT22;26642;55.766;37.828;2023-05-07T06:18:16;20.80;37.10
40636;DHT22;26642;55.766;37.828;2023-05-07T06:20:42;20.80;37.10
40636;DHT22;26642;55.766;37.828;2023-05-07T06:23:14;20.70;37.20
40636;DHT22;26642;55.766;37.828;2023-05-07T06:25:40;20.60;37.40
40636;DHT22;26642;55.766;37.828;2023-05-07T06:28:06;20.40;37.40
40636;DHT22;26642;55.766;37.828;2023-05-07T06:30:36;20.20;37.60
40636;DHT22;26642;55.766;37.828;2023-05-07T06:33:02;20.00;37.80
40636;DHT22;26642;55.766;37.828;2023-05-07T06:35:28;19.80;38.00
40636;DHT22;26642;55.766;37.828;2023-05-07T06:37:54;19.70;38.20
40636;DHT22;26642;55.766;37.828;2023-05-07T06:40:24;19.80;38.20
40636;DHT22;26642;55.766;37.828;2023-05-07T06:42:50;20.00;38.00
40636;DHT22;26642;55.766;37.828;2023-05-07T06:45:27;20.20;37.70
40636;DHT22;26642;55.766;37.828;2023-05-07T06:47:55;20.40;37.60
40636;DHT22;26642;55.766;37.828;2023-05-07T06:50:22;20.60;37.50
40636;DHT22;26642;55.766;37.828;2023-05-07T06:52:49;20.50;37.20
40636;DHT22;26642;55.766;37.828;2023-05-07T06:55:15;20.30;37.30
40636;DHT22;26642;55.766;37.828;2023-05-07T06:57:41;20.30;37.40
40636;DHT22;26642;55.766;37.828;2023-05-07T07:00:07;20.40;37.50
40636;DHT22;26642;55.766;37.828;2023-05-07T07:02:43;20.30;37.50
40636;DHT22;26642;55.766;37.828;2023-05-07T07:05:11;20.20;37.60
40636;DHT22;26642;55.766;37.828;2023-05-07T07:07:37;20.30;37.60
40636;DHT22;26642;55.766;37.828;2023-05-07T07:10:04;20.30;37.40
40636;DHT22;26642;55.766;37.828;2023-05-07T07:12:31;20.30;37.40
40636;DHT22;26642;55.766;37.828;2023-05-07T07:14:57;20.40;37.70
40636;DHT22;26642;55.766;37.828;2023-05-07T07:17:23;20.30;37.30
40636;DHT22;26642;55.766;37.828;2023-05-07T07:19:49;20.20;37.30
40636;DHT22;26642;55.766;37.828;2023-05-07T07:22:16;20.10;37.00
40636;DHT22;26642;55.766;37.828;2023-05-07T07:24:42;20.00;37.20
40636;DHT22;26642;55.766;37.828;2023-05-07T07:27:10;19.80;36.60
40636;DHT22;26642;55.766;37.828;2023-05-07T07:29:37;19.70;36.20
40636;DHT22;26642;55.766;37.828;2023-05-07T07:32:03;19.60;35.30
40636;DHT22;26642;55.766;37.828;2023-05-07T07:34:30;19.50;34.90
40636;DHT22;26642;55.766;37.828;2023-05-07T07:36:57;19.50;34.40
40636;DHT22;26642;55.766;37.828;2023-05-07T07:39:24;19.50;34.30
40636;DHT22;26642;55.766;37.828;2023-05-07T07:41:53;19.40;34.00
40636;DHT22;26642;55.766;37.828;2023-05-07T07:44:20;19.30;33.70
40636;DHT22;26642;55.766;37.828;2023-05-07T07:46:51;19.20;33.40
40636;DHT22;26642;55.766;37.828;2023-05-07T07:49:19;19.10;33.30
40636;DHT22;26642;55.766;37.828;2023-05-07T07:51:45;19.00;33.10
40636;DHT22;26642;55.766;37.828;2023-05-07T07:54:12;19.00;33.10
40636;DHT22;26642;55.766;37.828;2023-05-07T07:56:39;18.90;33.20
40636;DHT22;26642;55.766;37.828;2023-05-07T07:59:06;18.80;33.20
40636;DHT22;26642;55.766;37.828;2023-05-07T08:01:34;18.70;33.30
40636;DHT22;26642;55.766;37.828;2023-05-07T08:04:00;18.60;33.20
40636;DHT22;26642;55.766;37.828;2023-05-07T08:06:29;18.50;33.20
40636;DHT22;26642;55.766;37.828;2023-05-07T08:08:55;18.50;33.30
40636;DHT22;26642;55.766;37.828;2023-05-07T08:11:22;18.60;33.30
40636;DHT22;26642;55.766;37.828;2023-05-07T08:13:48;18.60;33.20
40636;DHT22;26642;55.766;37.828;2023-05-07T08:16:15;18.60;33.60
40636;DHT22;26642;55.766;37.828;2023-05-07T08:18:41;18.60;33.10
40636;DHT22;26642;55.766;37.828;2023-05-07T08:21:07;18.50;32.60
40636;DHT22;26642;55.766;37.828;2023-05-07T08:23:34;18.50;32.60
40636;DHT22;26642;55.766;37.828;2023-05-07T08:26:01;18.50;32.40
40636;DHT22;26642;55.766;37.828;2023-05-07T08:28:27;18.40;32.10
40636;DHT22;26642;55.766;37.828;2023-05-07T08:30:53;18.40;32.30
40636;DHT22;26642;55.766;37.828;2023-05-07T08:33:19;18.40;32.40
40636;DHT22;26642;55.766;37.828;2023-05-07T08:35:45;18.40;32.80
40636;DHT22;26642;55.766;37.828;2023-05-07T08:38:13;18.30;32.80
40636;DHT22;26642;55.766;37.828;2023-05-07T08:40:40;18.40;33.10
40636;DHT22;26642;55.766;37.828;2023-05-07T08:43:18;18.30;33.70
40636;DHT22;26642;55.766;37.828;2023-05-07T08:45:45;18.30;33.30
40636;DHT22;26642;55.766;37.828;2023-05-07T08:48:17;18.20;33.40
40636;DHT22;26642;55.766;37.828;2023-05-07T08:50:48;18.20;33.30
40636;DHT22;26642;55.766;37.828;2023-05-07T08:53:15;18.20;33.10
40636;DHT22;26642;55.766;37.828;2023-05-07T08:55:42;18.10;32.90
40636;DHT22;26642;55.766;37.828;2023-05-07T08:58:08;18.10;32.80
40636;DHT22;26642;55.766;37.828;2023-05-07T09:00:39;18.00;33.00
40636;DHT22;26642;55.766;37.828;2023-05-07T09:03:06;17.90;32.60
40636;DHT22;26642;55.766;37.828;2023-05-07T09:05:32;17.70;31.60
40636;DHT22;26642;55.766;37.828;2023-05-07T09:08:08;17.60;31.30
40636;DHT22;26642;55.766;37.828;2023-05-07T09:10:34;17.40;30.70
40636;DHT22;26642;55.766;37.828;2023-05-07T09:13:02;17.10;29.90
40636;DHT22;26642;55.766;37.828;2023-05-07T09:15:29;16.80;30.30
40636;DHT22;26642;55.766;37.828;2023-05-07T09:17:59;16.70;30.50
40636;DHT22;26642;55.766;37.828;2023-05-07T09:20:29;16.70;30.70
40636;DHT22;26642;55.766;37.828;2023-05-07T09:22:56;16.60;31.00
40636;DHT22;26642;55.766;37.828;2023-05-07T09:25:31;16.50;31.00
40636;DHT22;26642;55.766;37.828;2023-05-07T09:28:03;16.40;31.20
40636;DHT22;26642;55.766;37.828;2023-05-07T09:30:33;16.40;31.10
40636;DHT22;26642;55.766;37.828;2023-05-07T09:33:03;16.30;31.20
40636;DHT22;26642;55.766;37.828;2023-05-07T09:35:30;16.20;31.20
40636;DHT22;26642;55.766;37.828;2023-05-07T09:38:02;16.20;31.50
40636;DHT22;26642;55.766;37.828;2023-05-07T09:40:30;16.10;31.80
40636;DHT22;26642;55.766;37.828;2023-05-07T09:43:11;16.00;31.80
40636;DHT22;26642;55.766;37.828;2023-05-07T09:45:41;15.90;31.80
40636;DHT22;26642;55.766;37.828;2023-05-07T09:48:10;15.80;32.10
40636;DHT22;26642;55.766;37.828;2023-05-07T09:50:49;15.70;31.60
40636;DHT22;26642;55.766;37.828;2023-05-07T09:53:20;15.60;31.70
40636;DHT22;26642;55.766;37.828;2023-05-07T09:55:47;15.40;31.30
40636;DHT22;26642;55.766;37.828;2023-05-07T09:58:15;15.20;31.40
40636;DHT22;26642;55.766;37.828;2023-05-07T10:00:43;15.10;31.80
40636;DHT22;26642;55.766;37.828;2023-05-07T10:03:13;15.20;31.90
40636;DHT22;26642;55.766;37.828;2023-05-07T10:05:51;15.20;32.30
40636;DHT22;26642;55.766;37.828;2023-05-07T10:08:19;15.10;32.20
40636;DHT22;26642;55.766;37.828;2023-05-07T10:10:49;15.10;32.00
40636;DHT22;26642;55.766;37.828;2023-05-07T10:13:19;15.10;32.00
40636;DHT22;26642;55.766;37.828;2023-05-07T10:15:50;15.00;31.90
40636;DHT22;26642;55.766;37.828;2023-05-07T10:18:18;15.00;32.10
40636;DHT22;26642;55.766;37.828;2023-05-07T10:20:50;15.00;32.30
40636;DHT22;26642;55.766;37.828;2023-05-07T10:23:23;15.00;32.50
40636;DHT22;26642;55.766;37.828;2023-05-07T10:25:50;15.00;32.40
40636;DHT22;26642;55.766;37.828;2023-05-07T10:28:22;15.00;32.20
40636;DHT22;26642;55.766;37.828;2023-05-07T10:33:32;14.90;32.20
40636;DHT22;26642;55.766;37.828;2023-05-07T10:36:01;14.90;32.30
40636;DHT22;26642;55.766;37.828;2023-05-07T10:38:31;14.90;32.40
40636;DHT22;26642;55.766;37.828;2023-05-07T10:40:59;14.70;32.30
40636;DHT22;26642;55.766;37.828;2023-05-07T10:43:25;14.60;32.30
40636;DHT22;26642;55.766;37.828;2023-05-07T10:46:29;14.70;32.40
40636;DHT22;26642;55.766;37.828;2023-05-07T10:49:19;14.70;32.70
40636;DHT22;26642;55.766;37.828;2023-05-07T10:54:38;14.60;32.50
40636;DHT22;26642;55.766;37.828;2023-05-07T10:59:58;14.60;32.50
40636;DHT22;26642;55.766;37.828;2023-05-07T11:03:06;14.60;32.70
40636;DHT22;26642;55.766;37.828;2023-05-07T11:05:39;14.60;32.90
40636;DHT22;26642;55.766;37.828;2023-05-07T11:08:14;14.60;34.10
40636;DHT22;26642;55.766;37.828;2023-05-07T11:10:53;14.70;34.30
40636;DHT22;26642;55.766;37.828;2023-05-07T11:13:49;14.70;34.10
40636;DHT22;26642;55.766;37.828;2023-05-07T11:16:36;14.80;34.00
40636;DHT22;26642;55.766;37.828;2023-05-07T11:19:52;14.80;34.00
40636;DHT22;26642;55.766;37.828;2023-05-07T11:22:56;14.90;37.00
40636;DHT22;26642;55.766;37.828;2023-05-07T11:25:28;14.90;36.50
40636;DHT22;26642;55.766;37.828;2023-05-07T11:28:13;15.00;35.90
40636;DHT22;26642;55.766;37.828;2023-05-07T11:30:45;15.00;35.70
40636;DHT22;26642;55.766;37.828;2023-05-07T11:33:17;15.00;35.50
40636;DHT22;26642;55.766;37.828;2023-05-07T11:35:46;15.00;35.20
40636;DHT22;26642;55.766;37.828;2023-05-07T11:38:14;15.10;35.10
40636;DHT22;26642;55.766;37.828;2023-05-07T11:40:56;15.10;35.00
40636;DHT22;26642;55.766;37.828;2023-05-07T11:43:23;15.10;34.80
40636;DHT22;26642;55.766;37.828;2023-05-07T11:45:49;15.10;34.60
40636;DHT22;26642;55.766;37.828;2023-05-07T11:48:16;15.10;34.40
40636;DHT22;26642;55.766;37.828;2023-05-07T11:51:01;15.10;34.60
40636;DHT22;26642;55.766;37.828;2023-05-07T11:53:36;15.10;34.40
40636;DHT22;26642;55.766;37.828;2023-05-07T11:56:13;15.10;34.20
40636;DHT22;26642;55.766;37.828;2023-05-07T11:58:40;15.20;34.00
40636;DHT22;26642;55.766;37.828;2023-05-07T12:01:10;15.20;34.00
40636;DHT22;26642;55.766;37.828;2023-05-07T12:03:37;15.20;33.90
40636;DHT22;26642;55.766;37.828;2023-05-07T12:06:06;15.10;34.00
40636;DHT22;26642;55.766;37.828;2023-05-07T12:08:32;15.20;33.90
40636;DHT22;26642;55.766;37.828;2023-05-07T12:10:58;15.20;34.10
40636;DHT22;26642;55.766;37.828;2023-05-07T12:13:25;15.20;34.00
40636;DHT22;26642;55.766;37.828;2023-05-07T12:15:52;15.20;34.20
40636;DHT22;26642;55.766;37.828;2023-05-07T12:18:19;15.20;34.20
40636;DHT22;26642;55.766;37.828;2023-05-07T12:20:45;15.20;34.30
40636;DHT22;26642;55.766;37.828;2023-05-07T12:23:12;15.30;34.40
40636;DHT22;26642;55.766;37.828;2023-05-07T12:25:39;15.30;34.10
40636;DHT22;26642;55.766;37.828;2023-05-07T12:28:07;15.30;34.10
40636;DHT22;26642;55.766;37.828;2023-05-07T12:30:39;15.30;34.00
40636;DHT22;26642;55.766;37.828;2023-05-07T12:33:06;15.40;34.10
40636;DHT22;26642;55.766;37.828;2023-05-07T12:35:36;15.40;34.10
40636;DHT22;26642;55.766;37.828;2023-05-07T12:38:08;15.40;34.00
40636;DHT22;26642;55.766;37.828;2023-05-07T12:40:42;15.40;33.90
40636;DHT22;26642;55.766;37.828;2023-05-07T12:43:15;15.40;33.90
40636;DHT22;26642;55.766;37.828;2023-05-07T12:45:42;15.30;33.80
40636;DHT22;26642;55.766;37.828;2023-05-07T12:48:10;15.30;33.80
40636;DHT22;26642;55.766;37.828;2023-05-07T12:50:36;15.30;33.80
40636;DHT22;26642;55.766;37.828;2023-05-07T12:53:06;15.30;34.00
40636;DHT22;26642;55.766;37.828;2023-05-07T12:55:55;15.30;33.80
40636;DHT22;26642;55.766;37.828;2023-05-07T12:58:33;15.30;34.60
40636;DHT22;26642;55.766;37.828;2023-05-07T13:01:03;15.30;34.50
40636;DHT22;26642;55.766;37.828;2023-05-07T13:03:37;15.30;34.50
40636;DHT22;26642;55.766;37.828;2023-05-07T13:06:08;15.30;34.30
40636;DHT22;26642;55.766;37.828;2023-05-07T13:08:41;15.40;34.60
40636;DHT22;26642;55.766;37.828;2023-05-07T13:11:11;15.40;34.40
40636;DHT22;26642;55.766;37.828;2023-05-07T13:13:39;15.40;34.70
40636;DHT22;26642;55.766;37.828;2023-05-07T13:16:07;15.40;34.60
40636;DHT22;26642;55.766;37.828;2023-05-07T13:18:33;15.40;34.60
40636;DHT22;26642;55.766;37.828;2023-05-07T13:21:00;15.40;34.30
40636;DHT22;26642;55.766;37.828;2023-05-07T13:23:27;15.30;34.30
40636;DHT22;26642;55.766;37.828;2023-05-07T13:25:54;15.40;34.20
40636;DHT22;26642;55.766;37.828;2023-05-07T13:28:23;15.30;34.10
40636;DHT22;26642;55.766;37.828;2023-05-07T13:30:50;15.30;34.00
40636;DHT22;26642;55.766;37.828;2023-05-07T13:33:17;15.30;34.10
40636;DHT22;26642;55.766;37.828;2023-05-07T13:35:44;15.30;34.00
40636;DHT22;26642;55.766;37.828;2023-05-07T13:38:10;15.30;33.60
40636;DHT22;26642;55.766;37.828;2023-05-07T13:40:36;15.30;33.60
40636;DHT22;26642;55.766;37.828;2023-05-07T13:43:02;15.30;33.60
40636;DHT22;26642;55.766;37.828;2023-05-07T13:45:28;15.30;40.90
40636;DHT22;26642;55.766;37.828;2023-05-07T13:47:57;15.40;43.00
40636;DHT22;26642;55.766;37.828;2023-05-07T13:50:24;15.40;41.30
40636;DHT22;26642;55.766;37.828;2023-05-07T13:52:50;15.40;39.50
40636;DHT22;26642;55.766;37.828;2023-05-07T13:55:24;15.40;36.60
40636;DHT22;26642;55.766;37.828;2023-05-07T13:57:58;15.30;35.10
40636;DHT22;26642;55.766;37.828;2023-05-07T14:00:25;15.20;34.50
40636;DHT22;26642;55.766;37.828;2023-05-07T14:02:52;15.20;33.90
40636;DHT22;26642;55.766;37.828;2023-05-07T14:05:18;15.10;33.70
40636;DHT22;26642;55.766;37.828;2023-05-07T14:07:45;15.10;33.30
40636;DHT22;26642;55.766;37.828;2023-05-07T14:10:12;15.00;33.10
40636;DHT22;26642;55.766;37.828;2023-05-07T14:12:38;14.90;32.70
40636;DHT22;26642;55.766;37.828;2023-05-07T14:15:05;14.90;32.80
40636;DHT22;26642;55.766;37.828;2023-05-07T14:17:31;14.70;32.80
40636;DHT22;26642;55.766;37.828;2023-05-07T14:19:57;14.60;33.00
40636;DHT22;26642;55.766;37.828;2023-05-07T14:22:24;14.60;33.20
40636;DHT22;26642;55.766;37.828;2023-05-07T14:24:50;14.60;32.90
40636;DHT22;26642;55.766;37.828;2023-05-07T14:27:16;14.50;32.90
40636;DHT22;26642;55.766;37.828;2023-05-07T14:29:42;14.50;32.90
40636;DHT22;26642;55.766;37.828;2023-05-07T14:32:08;14.50;33.00
40636;DHT22;26642;55.766;37.828;2023-05-07T14:34:34;14.50;33.20
40636;DHT22;26642;55.766;37.828;2023-05-07T14:37:00;14.40;33.10
40636;DHT22;26642;55.766;37.828;2023-05-07T14:39:27;14.40;33.20
40636;DHT22;26642;55.766;37.828;2023-05-07T14:41:53;14.40;33.20
40636;DHT22;26642;55.766;37.828;2023-05-07T14:44:20;14.30;33.00
40636;DHT22;26642;55.766;37.828;2023-05-07T14:46:46;14.30;32.80
40636;DHT22;26642;55.766;37.828;2023-05-07T14:49:14;14.30;33.00
40636;DHT22;26642;55.766;37.828;2023-05-07T14:51:46;14.30;33.30
40636;DHT22;26642;55.766;37.828;2023-05-07T14:54:13;14.20;33.50
40636;DHT22;26642;55.766;37.828;2023-05-07T14:56:40;14.20;33.40
40636;DHT22;26642;55.766;37.828;2023-05-07T14:59:07;14.20;33.40
40636;DHT22;26642;55.766;37.828;2023-05-07T15:01:37;14.20;33.50
40636;DHT22;26642;55.766;37.828;2023-05-07T15:04:04;14.10;33.30
40636;DHT22;26642;55.766;37.828;2023-05-07T15:06:30;14.10;33.40
40636;DHT22;26642;55.766;37.828;2023-05-07T15:08:57;14.00;33.40
40636;DHT22;26642;55.766;37.828;2023-05-07T15:11:23;14.00;33.50
40636;DHT22;26642;55.766;37.828;2023-05-07T15:13:49;14.00;33.40
40636;DHT22;26642;55.766;37.828;2023-05-07T15:16:15;14.00;33.70
40636;DHT22;26642;55.766;37.828;2023-05-07T15:18:42;14.00;33.70
40636;DHT22;26642;55.766;37.828;2023-05-07T15:21:08;13.90;33.80
40636;DHT22;26642;55.766;37.828;2023-05-07T15:23:35;13.90;33.80
40636;DHT22;26642;55.766;37.828;2023-05-07T15:26:01;13.90;33.60
40636;DHT22;26642;55.766;37.828;2023-05-07T15:28:27;13.80;33.70
40636;DHT22;26642;55.766;37.828;2023-05-07T15:30:56;13.80;33.70
40636;DHT22;26642;55.766;37.828;2023-05-07T15:33:22;13.80;33.60